Time;durP1;ratioP1;P1;durP2;ratioP2;P2;SDS_P1;SDS_P2;PMS_P1;PMS_P2;Temp;Humidity;BMP_temperature;BMP_pressure;BME280_temperature;BME280_humidity;BME280_pressure;Samples;Min_cycle;Max_cycle;Signal;HPM_P1;HPM_P2
2024/02/19 00:01:41;;;;;;;2.25;2.05;;;7.60;99.90;;;;;;5023985;28;20033;-35
2024/02/19 00:04:07;;;;;;;2.78;2.50;;;7.60;99.90;;;;;;5019376;28;20032;-35
2024/02/19 00:06:34;;;;;;;2.00;1.88;;;7.60;99.90;;;;;;5026213;28;20487;-36
2024/02/19 00:09:00;;;;;;;3.28;3.00;;;7.60;99.90;;;;;;5022552;28;20022;-33
2024/02/19 00:11:26;;;;;;;1.70;1.60;;;7.60;99.90;;;;;;5019138;28;20511;-32
2024/02/19 00:13:52;;;;;;;2.40;2.17;;;7.60;99.90;;;;;;5018520;28;20045;-35
2024/02/19 00:16:19;;;;;;;3.28;2.40;;;7.60;99.90;;;;;;5021820;28;20041;-35
2024/02/19 00:18:45;;;;;;;3.70;2.42;;;7.60;99.90;;;;;;5025000;28;20018;-34
2024/02/19 00:21:10;;;;;;;3.03;2.40;;;7.50;99.90;;;;;;5029223;28;20047;-33
2024/02/19 00:23:36;;;;;;;2.05;1.85;;;7.60;99.90;;;;;;5019556;28;20391;-33
2024/02/19 00:26:02;;;;;;;2.42;2.13;;;7.60;99.90;;;;;;5025942;28;20104;-32
2024/02/19 00:28:29;;;;;;;1.70;1.60;;;7.60;99.90;;;;;;5010020;28;20028;-33
2024/02/19 00:30:55;;;;;;;1.73;1.63;;;7.50;99.90;;;;;;5031941;28;20603;-34
2024/02/19 00:33:23;;;;;;;1.67;1.58;;;7.50;99.90;;;;;;5031221;28;20021;-33
2024/02/19 00:35:49;;;;;;;1.83;1.73;;;7.50;99.90;;;;;;5029664;28;20165;-35
2024/02/19 00:38:15;;;;;;;3.97;2.08;;;7.50;99.90;;;;;;5025970;28;20103;-32
2024/02/19 00:40:41;;;;;;;2.85;1.10;;;7.50;99.90;;;;;;5035126;28;20187;-35
2024/02/19 00:43:06;;;;;;;2.35;1.80;;;7.60;99.90;;;;;;5026408;28;20083;-33
2024/02/19 00:45:32;;;;;;;1.98;1.88;;;7.50;99.90;;;;;;5017607;28;20032;-33
2024/02/19 00:47:58;;;;;;;1.98;1.60;;;7.60;99.90;;;;;;5023598;28;20487;-34
2024/02/19 00:50:23;;;;;;;1.50;1.40;;;7.60;99.90;;;;;;5022104;28;20021;-38
2024/02/19 00:52:52;;;;;;;4.35;2.08;;;7.60;99.90;;;;;;5022230;28;20039;-37
2024/02/19 00:55:21;;;;;;;1.67;1.58;;;7.60;99.90;;;;;;5024824;28;20038;-36
2024/02/19 00:57:47;;;;;;;1.90;1.73;;;7.60;99.90;;;;;;5025993;28;20036;-35
2024/02/19 01:00:13;;;;;;;1.75;1.60;;;7.60;99.90;;;;;;5029918;28;20029;-41
2024/02/19 01:02:40;;;;;;;2.10;1.90;;;7.60;99.90;;;;;;5027897;28;20073;-36
2024/02/19 01:05:06;;;;;;;2.00;1.42;;;7.50;99.90;;;;;;5026985;28;20048;-35
2024/02/19 01:07:32;;;;;;;1.40;1.30;;;7.60;99.90;;;;;;5030981;28;20196;-32
2024/02/19 01:09:58;;;;;;;0.88;0.88;;;7.60;99.90;;;;;;5021158;28;20162;-33
2024/02/19 01:12:24;;;;;;;2.90;2.00;;;7.60;99.90;;;;;;5023925;28;20041;-40
2024/02/19 01:14:50;;;;;;;2.13;1.90;;;7.60;99.90;;;;;;5030568;28;20041;-41
2024/02/19 01:17:15;;;;;;;3.95;1.67;;;7.60;99.90;;;;;;5028748;28;20029;-41
2024/02/19 01:19:42;;;;;;;1.00;1.00;;;7.60;99.90;;;;;;5027113;28;20387;-40
2024/02/19 01:22:07;;;;;;;2.20;1.17;;;7.50;99.90;;;;;;5015806;28;20096;-41
2024/02/19 01:24:33;;;;;;;1.35;1.23;;;7.60;99.90;;;;;;5030945;28;20144;-41
2024/02/19 01:26:59;;;;;;;1.00;1.00;;;7.60;99.90;;;;;;5034829;28;20040;-40
2024/02/19 01:29:25;;;;;;;1.55;1.45;;;7.50;99.90;;;;;;5030568;28;20033;-41
2024/02/19 01:31:51;;;;;;;1.52;1.42;;;7.60;99.90;;;;;;5033799;28;20064;-39
2024/02/19 01:34:18;;;;;;;2.63;1.48;;;7.50;99.90;;;;;;5011792;28;20030;-41
2024/02/19 01:36:46;;;;;;;1.00;1.00;;;7.50;99.90;;;;;;5023491;28;20053;-43
2024/02/19 01:39:12;;;;;;;1.50;1.40;;;7.50;99.90;;;;;;5021827;28;20029;-43
2024/02/19 01:41:37;;;;;;;1.42;1.30;;;7.50;99.90;;;;;;5025502;28;20033;-41
2024/02/19 01:44:04;;;;;;;0.90;0.90;;;7.50;99.90;;;;;;5021349;28;20620;-41
2024/02/19 01:46:31;;;;;;;0.85;0.85;;;7.50;99.90;;;;;;5025878;28;20395;-40
2024/02/19 01:49:00;;;;;;;1.30;1.20;;;7.50;99.90;;;;;;5027323;28;20029;-41
2024/02/19 01:51:27;;;;;;;1.00;1.00;;;7.60;99.90;;;;;;5027010;28;20418;-41
2024/02/19 01:53:54;;;;;;;1.67;1.00;;;7.50;99.90;;;;;;5027434;28;20033;-36
2024/02/19 01:56:20;;;;;;;1.15;1.15;;;7.50;99.90;;;;;;5005387;28;20030;-39
2024/02/19 01:58:46;;;;;;;1.10;0.70;;;7.50;99.90;;;;;;5022612;28;20044;-36
2024/02/19 02:01:15;;;;;;;0.85;0.85;;;7.50;99.90;;;;;;5035355;28;20499;-42
2024/02/19 02:03:43;;;;;;;0.85;0.85;;;7.50;99.90;;;;;;5038959;28;20511;-40
2024/02/19 02:06:09;;;;;;;0.88;0.88;;;7.50;99.90;;;;;;5030516;28;20049;-42
2024/02/19 02:08:40;;;;;;;1.20;1.10;;;7.50;99.90;;;;;;5030800;28;20610;-41
2024/02/19 02:11:06;;;;;;;0.98;0.98;;;7.40;99.90;;;;;;5026336;28;20061;-37
2024/02/19 02:13:35;;;;;;;0.90;0.90;;;7.40;99.90;;;;;;5027706;28;20115;-36
2024/02/19 02:16:02;;;;;;;0.40;0.40;;;7.50;99.90;;;;;;5028901;28;20056;-39
2024/02/19 02:18:31;;;;;;;0.90;0.90;;;7.40;99.90;;;;;;5026194;28;20029;-38
2024/02/19 02:20:57;;;;;;;;;;;7.40;99.90;;;;;;5035002;28;20040;-40
2024/02/19 02:23:26;;;;;;;0.60;0.60;;;7.40;99.90;;;;;;5035703;28;19935;-41
2024/02/19 02:25:55;;;;;;;1.00;0.90;;;7.40;99.90;;;;;;5032451;28;22348;-36
2024/02/19 02:28:24;;;;;;;1.38;1.27;;;7.50;99.90;;;;;;5028429;28;20399;-41
2024/02/19 02:30:50;;;;;;;0.80;0.80;;;7.50;99.90;;;;;;5031384;28;20059;-39
2024/02/19 02:33:16;;;;;;;0.90;0.90;;;7.50;99.90;;;;;;5036702;28;20032;-40
2024/02/19 02:35:42;;;;;;;0.85;0.85;;;7.40;99.90;;;;;;5035080;28;20045;-40
2024/02/19 02:38:08;;;;;;;0.90;0.90;;;7.40;99.90;;;;;;5028492;28;20033;-39
2024/02/19 02:40:35;;;;;;;1.15;0.80;;;7.40;99.90;;;;;;5027602;28;20395;-39
2024/02/19 02:43:02;;;;;;;1.38;1.20;;;7.40;99.90;;;;;;5033363;28;20028;-41
2024/02/19 02:45:28;;;;;;;0.70;0.70;;;7.40;99.90;;;;;;5029659;28;20060;-41
2024/02/19 02:47:53;;;;;;;0.60;0.60;;;7.40;99.90;;;;;;5032742;28;20068;-40
2024/02/19 02:50:19;;;;;;;1.00;1.00;;;7.40;99.90;;;;;;5024850;28;20036;-40
2024/02/19 02:52:44;;;;;;;0.90;0.90;;;7.40;99.90;;;;;;5031743;28;20033;-42
2024/02/19 02:55:10;;;;;;;0.88;0.88;;;7.40;99.90;;;;;;5031761;28;20056;-42
2024/02/19 02:57:35;;;;;;;0.63;0.63;;;7.40;99.90;;;;;;5023977;28;20022;-38
2024/02/19 03:00:01;;;;;;;0.65;0.65;;;7.40;99.90;;;;;;5032883;28;20060;-41
2024/02/19 03:02:27;;;;;;;1.00;1.00;;;7.40;99.90;;;;;;5032688;28;20067;-43
2024/02/19 03:04:52;;;;;;;1.27;1.17;;;7.40;99.90;;;;;;5027992;28;20029;-39
2024/02/19 03:07:18;;;;;;;1.10;1.10;;;7.40;99.90;;;;;;5025958;28;20039;-42
2024/02/19 03:09:44;;;;;;;1.15;1.00;;;7.40;99.90;;;;;;5025118;28;20041;-40
2024/02/19 03:12:09;;;;;;;1.10;1.10;;;7.50;99.90;;;;;;5030946;28;20487;-42
2024/02/19 03:14:35;;;;;;;0.70;0.70;;;7.50;99.90;;;;;;5028487;28;20037;-40
2024/02/19 03:17:00;;;;;;;1.75;0.90;;;7.50;99.90;;;;;;5028671;28;20068;-38
2024/02/19 03:19:26;;;;;;;0.77;0.77;;;7.50;99.90;;;;;;5027963;28;20021;-41
2024/02/19 03:21:54;;;;;;;0.90;0.90;;;7.50;99.90;;;;;;5030122;28;20364;-35
2024/02/19 03:24:20;;;;;;;0.70;0.70;;;7.50;99.90;;;;;;5022069;28;20720;-35
2024/02/19 03:26:46;;;;;;;0.70;0.70;;;7.50;99.90;;;;;;5028477;28;20104;-34
2024/02/19 03:29:12;;;;;;;1.45;1.05;;;7.50;99.90;;;;;;5031428;28;20610;-33
2024/02/19 03:31:39;;;;;;;1.10;1.10;;;7.50;99.90;;;;;;5033308;28;20025;-32
2024/02/19 03:34:05;;;;;;;1.17;1.13;;;7.60;99.90;;;;;;5032423;28;20037;-33
2024/02/19 03:36:31;;;;;;;0.95;0.95;;;7.50;99.90;;;;;;5023776;28;20448;-35
2024/02/19 03:38:57;;;;;;;0.77;0.77;;;7.50;99.90;;;;;;5032261;28;20151;-31
2024/02/19 03:41:23;;;;;;;1.30;1.20;;;7.50;99.90;;;;;;5030664;28;20036;-33
2024/02/19 03:43:49;;;;;;;0.95;0.93;;;7.50;99.90;;;;;;5029170;28;20025;-34
2024/02/19 03:46:15;;;;;;;0.80;0.80;;;7.60;99.90;;;;;;5028507;28;20034;-31
2024/02/19 03:48:42;;;;;;;0.70;0.70;;;7.50;99.90;;;;;;5035433;28;20502;-32
2024/02/19 03:51:10;;;;;;;1.00;1.00;;;7.50;99.90;;;;;;5031748;28;20482;-31
2024/02/19 03:53:36;;;;;;;0.75;0.75;;;7.60;99.90;;;;;;5030935;28;20109;-33
2024/02/19 03:56:01;;;;;;;0.93;0.93;;;7.60;99.90;;;;;;5024623;28;20042;-33
2024/02/19 03:58:27;;;;;;;0.98;0.90;;;7.60;99.90;;;;;;5032153;28;20021;-32
2024/02/19 04:00:53;;;;;;;0.75;0.75;;;7.60;99.90;;;;;;5033741;28;20151;-34
2024/02/19 04:03:18;;;;;;;0.70;0.70;;;7.50;99.90;;;;;;5032443;28;20021;-33
2024/02/19 04:05:44;;;;;;;1.27;1.27;;;7.60;99.90;;;;;;5029491;28;20025;-31
2024/02/19 04:08:09;;;;;;;1.00;1.00;;;7.60;99.90;;;;;;5030813;28;20439;-32
2024/02/19 04:10:35;;;;;;;0.90;0.90;;;7.60;99.90;;;;;;5031142;28;20048;-35
2024/02/19 04:13:01;;;;;;;2.90;1.10;;;7.60;99.90;;;;;;5026997;28;20568;-35
2024/02/19 04:15:27;;;;;;;1.05;0.90;;;7.60;99.90;;;;;;5024664;28;20522;-32
2024/02/19 04:17:53;;;;;;;1.23;0.70;;;7.60;99.90;;;;;;5028019;28;20021;-35
2024/02/19 04:20:19;;;;;;;0.90;0.90;;;7.60;99.90;;;;;;5027680;28;20043;-34
2024/02/19 04:22:45;;;;;;;0.90;0.90;;;7.60;99.90;;;;;;5027977;28;20390;-34
2024/02/19 04:25:12;;;;;;;1.50;1.40;;;7.60;99.90;;;;;;5027731;28;20053;-31
2024/02/19 04:27:38;;;;;;;1.40;1.30;;;7.50;99.90;;;;;;5021753;28;20032;-34
2024/02/19 04:30:04;;;;;;;1.27;1.27;;;7.50;99.90;;;;;;5030495;28;20473;-34
2024/02/19 04:32:30;;;;;;;1.25;1.23;;;7.50;99.90;;;;;;5034113;28;20049;-39
2024/02/19 04:34:57;;;;;;;1.40;1.10;;;7.60;99.90;;;;;;5029885;28;20103;-39
2024/02/19 04:37:23;;;;;;;0.85;0.85;;;7.60;99.90;;;;;;5026323;28;20037;-40
2024/02/19 04:39:49;;;;;;;0.98;0.98;;;7.60;99.90;;;;;;5023992;28;20123;-40
2024/02/19 04:42:15;;;;;;;1.15;1.08;;;7.60;99.90;;;;;;5028995;28;20030;-33
2024/02/19 04:44:41;;;;;;;1.25;1.20;;;7.60;99.90;;;;;;5034301;28;20032;-31
2024/02/19 04:47:07;;;;;;;0.88;0.88;;;7.60;99.90;;;;;;5030190;28;20057;-35
2024/02/19 04:49:32;;;;;;;1.23;1.13;;;7.60;99.90;;;;;;5020832;28;20032;-33
2024/02/19 04:51:58;;;;;;;1.30;1.20;;;7.60;99.90;;;;;;5020147;28;20041;-33
2024/02/19 04:54:23;;;;;;;1.08;1.08;;;7.60;99.90;;;;;;5022457;28;20037;-31
2024/02/19 04:56:49;;;;;;;1.08;1.08;;;7.60;99.90;;;;;;5019317;28;20029;-35
2024/02/19 04:59:14;;;;;;;1.00;1.00;;;7.60;99.90;;;;;;5025046;28;20026;-32
2024/02/19 05:01:40;;;;;;;1.10;1.10;;;7.60;99.90;;;;;;5031674;28;20053;-34
2024/02/19 05:04:05;;;;;;;1.30;1.20;;;7.60;99.90;;;;;;5030767;28;20049;-33
2024/02/19 05:06:31;;;;;;;0.93;0.90;;;7.60;99.90;;;;;;5031054;28;20095;-31
2024/02/19 05:08:57;;;;;;;0.90;0.90;;;7.60;99.90;;;;;;5038718;28;20029;-32
2024/02/19 05:11:22;;;;;;;1.25;1.20;;;7.60;99.90;;;;;;5028990;28;20037;-31
2024/02/19 05:13:48;;;;;;;1.10;1.10;;;7.60;99.90;;;;;;5032364;28;20777;-35
2024/02/19 05:16:14;;;;;;;1.30;1.15;;;7.60;99.90;;;;;;5035208;28;20029;-32
2024/02/19 05:18:39;;;;;;;1.50;1.40;;;7.60;99.90;;;;;;5037705;28;20029;-32
2024/02/19 05:21:06;;;;;;;1.25;1.13;;;7.70;99.90;;;;;;5034081;28;20036;-37
2024/02/19 05:23:32;;;;;;;1.45;1.35;;;7.60;99.90;;;;;;5034734;28;20035;-32
2024/02/19 05:25:58;;;;;;;0.90;0.90;;;7.60;99.90;;;;;;5028573;28;20052;-33
2024/02/19 05:28:23;;;;;;;1.42;1.33;;;7.60;99.90;;;;;;5030433;28;20033;-31
2024/02/19 05:30:49;;;;;;;1.10;1.10;;;7.60;99.90;;;;;;5032544;28;20490;-33
2024/02/19 05:33:18;;;;;;;0.57;0.57;;;7.60;99.90;;;;;;5034397;28;20268;-35
2024/02/19 05:35:44;;;;;;;1.55;1.45;;;7.60;99.90;;;;;;5035066;28;20052;-32
2024/02/19 05:38:11;;;;;;;1.60;1.50;;;7.60;99.90;;;;;;5029293;28;20032;-31
2024/02/19 05:40:38;;;;;;;0.68;0.68;;;7.60;99.90;;;;;;5035161;28;20064;-39
2024/02/19 05:43:04;;;;;;;0.90;0.90;;;7.60;99.90;;;;;;5023643;28;20030;-40
2024/02/19 05:45:30;;;;;;;3.78;0.98;;;7.60;99.90;;;;;;5036379;28;20044;-42
2024/02/19 05:47:56;;;;;;;0.82;0.82;;;7.60;99.90;;;;;;5019171;28;20040;-37
2024/02/19 05:50:22;;;;;;;0.93;0.90;;;7.60;99.90;;;;;;5030859;28;20132;-37
2024/02/19 05:52:47;;;;;;;0.70;0.70;;;7.60;99.90;;;;;;5025731;28;20060;-38
2024/02/19 05:55:13;;;;;;;1.10;1.10;;;7.50;99.90;;;;;;5031866;28;20032;-37
2024/02/19 05:57:39;;;;;;;1.30;0.80;;;7.60;99.90;;;;;;5033810;28;20029;-40
2024/02/19 06:00:05;;;;;;;1.05;0.90;;;7.50;99.90;;;;;;5020069;28;20566;-40
2024/02/19 06:02:31;;;;;;;0.93;0.93;;;7.50;99.90;;;;;;5030065;28;20064;-40
2024/02/19 06:04:57;;;;;;;0.90;0.90;;;7.50;99.90;;;;;;5031004;28;20029;-41
2024/02/19 06:07:22;;;;;;;3.17;1.00;;;7.50;99.90;;;;;;5036091;28;20059;-40
2024/02/19 06:09:48;;;;;;;0.80;0.80;;;7.40;99.90;;;;;;5034410;28;20032;-38
2024/02/19 06:12:13;;;;;;;0.80;0.80;;;7.40;99.90;;;;;;5033088;28;20037;-39
2024/02/19 06:14:39;;;;;;;0.68;0.68;;;7.40;99.90;;;;;;5027482;28;20045;-39
2024/02/19 06:17:05;;;;;;;0.70;0.70;;;7.40;99.90;;;;;;5036727;28;20446;-41
2024/02/19 06:19:30;;;;;;;0.65;0.65;;;7.40;99.90;;;;;;5034450;28;20033;-40
2024/02/19 06:21:56;;;;;;;0.50;0.50;;;7.40;99.90;;;;;;5027724;28;20033;-39
2024/02/19 06:24:21;;;;;;;0.60;0.60;;;7.40;99.90;;;;;;5022755;28;20541;-40
2024/02/19 06:26:47;;;;;;;0.70;0.68;;;7.40;99.90;;;;;;5037864;28;20108;-40
2024/02/19 06:29:13;;;;;;;0.95;0.95;;;7.40;99.90;;;;;;5028042;28;20037;-39
2024/02/19 06:31:38;;;;;;;0.80;0.80;;;7.40;99.90;;;;;;5032149;28;20029;-37
2024/02/19 06:34:04;;;;;;;0.60;0.60;;;7.40;99.90;;;;;;5021401;28;20030;-40
2024/02/19 06:36:29;;;;;;;0.73;0.68;;;7.40;99.90;;;;;;5022866;28;20581;-40
2024/02/19 06:38:55;;;;;;;1.15;0.70;;;7.40;99.90;;;;;;5023454;28;20041;-34
2024/02/19 06:41:21;;;;;;;1.10;1.10;;;7.40;99.90;;;;;;5022204;28;20460;-40
2024/02/19 06:43:46;;;;;;;0.77;0.77;;;7.40;99.90;;;;;;5023079;28;20434;-35
2024/02/19 06:46:14;;;;;;;0.85;0.85;;;7.40;99.90;;;;;;5020134;28;20045;-40
2024/02/19 06:48:41;;;;;;;1.08;1.08;;;7.50;99.90;;;;;;5020829;28;20052;-41
2024/02/19 06:51:06;;;;;;;0.90;0.90;;;7.50;99.90;;;;;;5026669;28;20307;-38
2024/02/19 06:53:32;;;;;;;1.25;1.15;;;7.60;99.90;;;;;;5026923;28;20043;-40
2024/02/19 06:55:58;;;;;;;1.65;1.30;;;7.50;99.90;;;;;;5028864;28;20022;-40
2024/02/19 06:58:24;;;;;;;1.00;0.90;;;7.60;99.90;;;;;;5029188;28;20030;-40
2024/02/19 07:00:49;;;;;;;1.00;1.00;;;7.60;99.90;;;;;;5021857;28;20055;-37
2024/02/19 07:03:16;;;;;;;1.30;1.20;;;7.60;99.90;;;;;;5030549;28;20025;-40
2024/02/19 07:05:42;;;;;;;1.02;1.02;;;7.60;99.90;;;;;;5028461;28;20033;-42
2024/02/19 07:08:08;;;;;;;1.08;1.08;;;7.60;99.90;;;;;;5020253;28;20395;-39
2024/02/19 07:10:33;;;;;;;1.20;1.10;;;7.70;99.90;;;;;;5018397;28;20391;-42
2024/02/19 07:12:59;;;;;;;0.77;0.77;;;7.70;99.90;;;;;;5022158;28;20052;-41
2024/02/19 07:15:25;;;;;;;1.70;1.60;;;7.70;99.90;;;;;;5024855;28;20065;-36
2024/02/19 07:17:51;;;;;;;1.00;1.00;;;7.70;99.90;;;;;;5026683;28;20028;-39
2024/02/19 07:20:16;;;;;;;0.82;0.82;;;7.70;99.90;;;;;;5024647;28;20467;-36
2024/02/19 07:22:42;;;;;;;0.88;0.88;;;7.70;99.90;;;;;;5025525;28;20032;-42
2024/02/19 07:25:08;;;;;;;0.80;0.80;;;7.80;99.90;;;;;;5021406;28;20037;-37
2024/02/19 07:27:33;;;;;;;0.75;0.75;;;7.80;99.90;;;;;;5025828;28;20065;-41
2024/02/19 07:29:59;;;;;;;1.05;1.05;;;7.80;99.90;;;;;;5024242;28;20036;-42
2024/02/19 07:32:25;;;;;;;0.95;0.95;;;7.80;99.90;;;;;;5024378;28;20045;-41
2024/02/19 07:34:50;;;;;;;0.88;0.88;;;7.80;99.90;;;;;;5026079;28;20064;-40
2024/02/19 07:37:16;;;;;;;1.00;0.80;;;7.90;99.90;;;;;;5019239;28;20034;-40
2024/02/19 07:39:42;;;;;;;1.15;1.10;;;7.80;99.90;;;;;;5027414;28;20033;-41
2024/02/19 07:42:08;;;;;;;0.80;0.80;;;7.90;99.90;;;;;;5024514;28;20036;-40
2024/02/19 07:44:34;;;;;;;0.95;0.95;;;7.90;99.90;;;;;;5028317;28;20021;-42
2024/02/19 07:47:01;;;;;;;1.30;1.20;;;8.00;99.90;;;;;;5026611;28;20037;-41
2024/02/19 07:49:26;;;;;;;1.13;1.13;;;8.00;99.90;;;;;;5027103;28;20033;-38
2024/02/19 07:51:52;;;;;;;1.30;1.20;;;8.00;99.90;;;;;;5015646;28;20475;-34
2024/02/19 07:54:17;;;;;;;1.20;1.10;;;8.00;99.90;;;;;;5028744;28;20017;-41
2024/02/19 07:56:43;;;;;;;1.65;1.00;;;8.00;99.90;;;;;;5025879;28;20041;-40
2024/02/19 07:59:09;;;;;;;1.30;1.17;;;8.00;99.90;;;;;;5020971;28;20036;-41
2024/02/19 08:01:34;;;;;;;1.83;1.63;;;8.00;99.90;;;;;;5022928;28;20579;-32
2024/02/19 08:04:00;;;;;;;1.25;1.23;;;8.00;99.90;;;;;;5023982;28;20489;-32
2024/02/19 08:06:25;;;;;;;0.85;0.85;;;8.10;99.90;;;;;;5013918;28;20038;-38
2024/02/19 08:08:51;;;;;;;1.35;1.27;;;8.00;99.90;;;;;;5025769;28;20037;-40
2024/02/19 08:11:18;;;;;;;1.10;1.02;;;8.10;99.90;;;;;;5022458;28;20044;-38
2024/02/19 08:13:43;;;;;;;1.30;1.08;;;8.10;99.90;;;;;;5024221;28;20048;-40
2024/02/19 08:16:10;;;;;;;1.70;1.30;;;8.10;99.90;;;;;;5022645;28;20041;-40
2024/02/19 08:18:35;;;;;;;1.80;1.33;;;8.00;99.90;;;;;;5024585;28;20474;-39
2024/02/19 08:21:01;;;;;;;2.10;1.17;;;8.10;99.90;;;;;;5017656;28;20021;-40
2024/02/19 08:23:27;;;;;;;2.53;1.45;;;8.10;99.90;;;;;;5025603;28;20029;-39
2024/02/19 08:25:52;;;;;;;1.80;1.33;;;8.10;99.90;;;;;;5020105;28;20042;-36
2024/02/19 08:28:18;;;;;;;2.33;1.30;;;8.10;99.90;;;;;;5026508;28;20039;-40
2024/02/19 08:30:44;;;;;;;1.67;1.33;;;8.10;99.90;;;;;;5021058;28;20123;-40
2024/02/19 08:33:10;;;;;;;0.88;0.88;;;8.10;99.90;;;;;;5008054;28;20028;-39
2024/02/19 08:35:35;;;;;;;3.25;1.70;;;8.10;99.90;;;;;;5016007;28;20069;-40
2024/02/19 08:38:01;;;;;;;2.10;1.83;;;8.10;99.90;;;;;;5022432;28;20059;-38
2024/02/19 08:40:26;;;;;;;1.52;1.15;;;8.10;99.90;;;;;;5021773;28;20483;-38
2024/02/19 08:42:52;;;;;;;2.03;1.85;;;8.30;99.90;;;;;;5025082;28;20029;-37
2024/02/19 08:45:18;;;;;;;1.70;1.60;;;8.30;99.90;;;;;;5028980;28;20026;-40
2024/02/19 08:47:44;;;;;;;1.33;1.23;;;8.40;99.90;;;;;;5025402;28;20033;-41
2024/02/19 08:50:09;;;;;;;1.65;1.40;;;8.30;99.90;;;;;;5018816;28;20033;-40
2024/02/19 08:52:35;;;;;;;2.45;1.30;;;8.40;99.90;;;;;;5020598;28;20116;-39
2024/02/19 08:55:00;;;;;;;1.80;1.42;;;8.50;99.90;;;;;;5027781;28;20025;-38
2024/02/19 08:57:26;;;;;;;1.30;1.20;;;8.40;99.90;;;;;;5023937;28;20033;-36
2024/02/19 08:59:52;;;;;;;2.85;1.23;;;8.40;99.90;;;;;;5023822;28;20487;-37
2024/02/19 09:02:18;;;;;;;3.45;1.52;;;8.40;99.90;;;;;;5026145;28;20038;-40
2024/02/19 09:04:44;;;;;;;1.65;1.20;;;8.40;99.90;;;;;;5025416;28;20395;-40
2024/02/19 09:07:13;;;;;;;1.27;1.17;;;8.40;99.90;;;;;;5023130;28;20108;-40
2024/02/19 09:09:39;;;;;;;0.77;0.77;;;8.40;99.90;;;;;;5025161;28;20326;-40
2024/02/19 09:12:08;;;;;;;1.40;1.30;;;8.40;99.90;;;;;;5020922;28;20021;-33
2024/02/19 09:14:33;;;;;;;4.07;1.30;;;8.50;99.90;;;;;;5011836;28;20101;-33
2024/02/19 09:16:59;;;;;;;0.70;0.70;;;8.50;99.90;;;;;;5023774;28;20506;-33
2024/02/19 09:19:25;;;;;;;2.08;1.48;;;8.60;99.90;;;;;;5023212;28;20045;-35
2024/02/19 09:21:50;;;;;;;0.77;0.77;;;8.50;99.90;;;;;;5000949;28;20109;-33
2024/02/19 09:24:16;;;;;;;1.30;1.20;;;8.50;99.90;;;;;;5024796;28;20032;-32
2024/02/19 09:26:42;;;;;;;0.77;0.77;;;8.50;99.90;;;;;;5018904;28;20037;-32
2024/02/19 09:29:07;;;;;;;1.30;1.15;;;8.60;99.90;;;;;;5022797;28;20042;-32
2024/02/19 09:31:33;;;;;;;1.38;0.85;;;8.60;99.90;;;;;;5023549;28;20120;-32
2024/02/19 09:34:00;;;;;;;1.30;0.80;;;8.60;99.90;;;;;;5026084;28;20064;-32
2024/02/19 09:36:25;;;;;;;1.52;1.17;;;8.60;99.90;;;;;;5020342;28;20049;-34
2024/02/19 09:38:53;;;;;;;1.23;1.13;;;8.70;99.90;;;;;;5024072;28;20022;-32
2024/02/19 09:41:19;;;;;;;0.90;0.90;;;8.70;99.90;;;;;;5022579;28;20113;-34
2024/02/19 09:43:44;;;;;;;0.75;0.75;;;8.70;99.90;;;;;;5016587;28;20446;-31
2024/02/19 09:46:15;;;;;;;1.67;1.50;;;8.70;99.90;;;;;;5026834;28;20347;-32
2024/02/19 09:48:42;;;;;;;1.02;1.02;;;8.60;99.90;;;;;;5013648;28;20033;-31
2024/02/19 09:51:10;;;;;;;4.30;0.90;;;8.60;99.90;;;;;;5039512;28;20034;-32
2024/02/19 09:53:39;;;;;;;1.05;0.95;;;8.70;99.90;;;;;;5026397;28;20188;-32
2024/02/19 09:56:06;;;;;;;1.80;0.70;;;8.60;99.90;;;;;;5023436;28;20088;-33
2024/02/19 09:58:32;;;;;;;0.95;0.95;;;8.70;99.90;;;;;;5029206;28;20038;-32
2024/02/19 10:00:58;;;;;;;1.48;1.25;;;8.70;99.90;;;;;;5026830;28;20040;-32
2024/02/19 10:03:23;;;;;;;0.95;0.95;;;8.70;99.90;;;;;;5024345;28;20037;-33
2024/02/19 10:05:49;;;;;;;0.77;0.77;;;8.80;99.90;;;;;;5027599;28;20021;-31
2024/02/19 10:08:15;;;;;;;1.55;0.82;;;8.80;99.90;;;;;;5028832;28;20474;-33
2024/02/19 10:10:43;;;;;;;1.17;1.15;;;8.90;99.90;;;;;;5027236;28;21352;-42
2024/02/19 10:13:11;;;;;;;0.80;0.80;;;9.00;99.90;;;;;;5026981;28;20474;-42
2024/02/19 10:15:37;;;;;;;2.30;1.52;;;8.90;99.90;;;;;;5027975;28;20037;-39
2024/02/19 10:18:22;;;;;;;0.90;0.90;;;8.90;99.90;;;;;;5025182;28;20406;-38
2024/02/19 10:20:50;;;;;;;1.08;1.08;;;8.90;99.90;;;;;;5022833;28;20109;-34
2024/02/19 10:23:18;;;;;;;1.02;0.90;;;8.70;99.90;;;;;;5030445;28;20029;-32
2024/02/19 10:25:44;;;;;;;1.45;1.10;;;8.80;99.90;;;;;;5028446;28;20043;-31
2024/02/19 10:28:10;;;;;;;0.85;0.85;;;8.80;99.90;;;;;;5027818;28;20055;-31
2024/02/19 10:30:35;;;;;;;1.48;1.10;;;8.80;99.90;;;;;;5025810;28;20029;-42
2024/02/19 10:33:01;;;;;;;1.52;1.30;;;8.90;99.90;;;;;;5029719;28;20368;-40
2024/02/19 10:35:28;;;;;;;1.20;1.00;;;8.80;99.90;;;;;;5022981;28;20482;-40
2024/02/19 10:37:58;;;;;;;1.13;1.05;;;8.70;99.90;;;;;;5028449;28;20033;-38
2024/02/19 10:40:24;;;;;;;2.15;1.60;;;8.70;99.90;;;;;;5025289;28;20026;-40
2024/02/19 10:42:50;;;;;;;4.18;1.60;;;8.60;99.90;;;;;;5023000;28;20029;-40
2024/02/19 10:45:21;;;;;;;1.00;0.88;;;8.60;99.90;;;;;;5021528;28;20056;-41
2024/02/19 10:47:51;;;;;;;2.70;1.67;;;8.60;99.90;;;;;;5006430;28;20029;-35
2024/02/19 10:50:18;;;;;;;0.90;0.90;;;8.60;99.90;;;;;;5020310;28;20041;-38
2024/02/19 10:52:48;;;;;;;1.75;1.40;;;8.60;99.90;;;;;;5031601;28;20037;-42
2024/02/19 10:55:17;;;;;;;2.80;1.35;;;8.60;99.90;;;;;;5017741;28;20425;-41
2024/02/19 10:57:51;;;;;;;1.65;1.40;;;8.50;99.90;;;;;;5024884;28;20147;-37
2024/02/19 11:00:18;;;;;;;1.30;1.20;;;8.50;99.90;;;;;;5024339;28;20380;-38
2024/02/19 11:02:47;;;;;;;1.65;1.30;;;8.60;99.90;;;;;;5022948;28;20032;-42
2024/02/19 11:05:13;;;;;;;1.98;1.27;;;8.60;99.90;;;;;;5028745;28;20106;-42
2024/02/19 11:07:40;;;;;;;1.73;1.40;;;8.60;99.90;;;;;;5025890;28;20152;-42
2024/02/19 11:10:06;;;;;;;2.15;1.17;;;8.60;99.90;;;;;;5021665;28;20044;-41
2024/02/19 11:12:33;;;;;;;1.00;1.00;;;8.40;99.90;;;;;;5021398;28;20116;-42
2024/02/19 11:14:59;;;;;;;1.67;1.33;;;8.40;99.90;;;;;;5022775;28;20029;-41
2024/02/19 11:17:24;;;;;;;0.82;0.82;;;8.40;99.90;;;;;;5024009;28;20033;-41
2024/02/19 11:19:54;;;;;;;0.90;0.90;;;8.40;99.90;;;;;;5022423;28;20022;-36
2024/02/19 11:22:30;;;;;;;0.68;0.68;;;8.30;99.90;;;;;;5023218;28;20025;-41
2024/02/19 11:24:57;;;;;;;2.95;1.10;;;8.40;99.90;;;;;;5024344;28;20099;-39
2024/02/19 11:27:23;;;;;;;1.55;1.00;;;8.40;99.90;;;;;;5020149;28;20041;-42
2024/02/19 11:29:56;;;;;;;1.23;1.13;;;8.40;99.90;;;;;;5007812;28;20079;-40
2024/02/19 11:32:23;;;;;;;2.72;1.30;;;8.40;99.90;;;;;;5021380;28;20046;-40
2024/02/19 11:34:49;;;;;;;1.00;1.00;;;8.30;99.90;;;;;;5016502;28;20049;-40
2024/02/19 11:37:15;;;;;;;3.35;1.00;;;8.30;99.90;;;;;;5023388;28;20482;-39
2024/02/19 11:39:42;;;;;;;2.67;1.02;;;8.20;99.90;;;;;;5027120;28;20029;-39
2024/02/19 11:42:11;;;;;;;1.58;0.90;;;8.30;99.90;;;;;;5020376;28;20041;-38
2024/02/19 11:44:37;;;;;;;1.30;1.00;;;8.20;99.90;;;;;;5017803;28;20288;-40
2024/02/19 11:47:03;;;;;;;0.82;0.80;;;8.20;99.90;;;;;;5021657;28;20151;-35
2024/02/19 11:49:29;;;;;;;0.75;0.75;;;8.20;99.90;;;;;;5023472;28;20397;-40
2024/02/19 11:51:55;;;;;;;1.38;1.13;;;8.20;99.90;;;;;;5019270;28;20033;-38
2024/02/19 11:54:20;;;;;;;1.00;1.00;;;8.20;99.90;;;;;;5025512;28;20040;-40
2024/02/19 11:56:51;;;;;;;0.90;0.90;;;8.20;99.90;;;;;;5027841;28;20030;-39
2024/02/19 11:59:18;;;;;;;1.13;1.00;;;8.10;99.90;;;;;;5019208;28;20107;-37
2024/02/19 12:01:47;;;;;;;1.90;1.15;;;8.10;99.90;;;;;;5016123;28;20033;-39
2024/02/19 12:04:15;;;;;;;1.35;0.77;;;8.10;99.90;;;;;;5014540;28;20038;-39
2024/02/19 12:06:41;;;;;;;1.88;1.08;;;8.20;99.90;;;;;;5022053;28;20069;-40
2024/02/19 12:09:10;;;;;;;1.60;0.75;;;8.20;99.90;;;;;;5018280;28;20698;-40
2024/02/19 12:11:37;;;;;;;0.70;0.70;;;8.30;99.90;;;;;;4993507;28;20034;-39
2024/02/19 12:14:06;;;;;;;2.40;1.13;;;8.20;99.90;;;;;;5022947;28;20124;-40
2024/02/19 12:16:32;;;;;;;0.57;0.57;;;8.30;99.90;;;;;;5022456;28;20029;-39
2024/02/19 12:18:58;;;;;;;1.92;1.20;;;8.20;99.90;;;;;;5023100;28;20399;-41
2024/02/19 12:21:24;;;;;;;2.10;0.70;;;8.20;99.90;;;;;;5019847;28;20026;-40
2024/02/19 12:23:52;;;;;;;0.65;0.65;;;8.30;99.90;;;;;;5028376;28;20029;-38
2024/02/19 12:26:19;;;;;;;0.82;0.82;;;8.20;99.90;;;;;;5019757;28;20029;-40
2024/02/19 12:28:45;;;;;;;0.70;0.70;;;8.20;99.90;;;;;;5028149;28;20033;-40
2024/02/19 12:31:11;;;;;;;1.40;0.80;;;8.30;99.90;;;;;;5021836;28;20555;-39
2024/02/19 12:33:37;;;;;;;1.17;0.50;;;8.30;99.90;;;;;;5028476;28;20416;-40
2024/02/19 12:36:10;;;;;;;2.67;0.90;;;8.30;99.90;;;;;;5020842;28;20128;-41
2024/02/19 12:38:41;;;;;;;0.70;0.70;;;8.20;99.90;;;;;;5026279;28;20056;-35
2024/02/19 12:41:10;;;;;;;2.17;1.23;;;8.20;99.90;;;;;;5025795;28;20036;-39
2024/02/19 12:43:40;;;;;;;1.15;1.00;;;8.20;99.90;;;;;;5019915;28;20082;-39
2024/02/19 12:46:07;;;;;;;0.65;0.65;;;8.20;99.90;;;;;;5007125;28;20029;-40
2024/02/19 12:48:37;;;;;;;0.73;0.73;;;8.30;99.90;;;;;;5024522;28;20044;-40
2024/02/19 12:51:03;;;;;;;2.83;1.00;;;8.30;99.90;;;;;;5021343;28;20068;-32
2024/02/19 12:53:29;;;;;;;1.10;1.05;;;8.30;99.90;;;;;;5025164;28;20017;-32